Time;durP1;ratioP1;P1;durP2;ratioP2;P2;SDS_P1;SDS_P2;PMS_P1;PMS_P2;Temp;Humidity;BMP_temperature;BMP_pressure;BME280_temperature;BME280_humidity;BME280_pressure;Samples;Min_cycle;Max_cycle;Signal;HPM_P1;HPM_P2
2023/04/07 00:00:48;;;;;;;11.43;7.28;;;;;;;7.99;76.38;98345.63;7385704;19;19922;-77
2023/04/07 00:03:15;;;;;;;9.07;6.57;;;;;;;7.97;76.27;98337.03;7389298;19;19918;-79
2023/04/07 00:05:42;;;;;;;9.23;6.30;;;;;;;8.00;76.33;98342.00;7389845;19;19943;-79
2023/04/07 00:08:09;;;;;;;11.38;6.78;;;;;;;7.89;75.91;98340.34;7383705;19;19923;-78
2023/04/07 00:10:36;;;;;;;10.13;6.78;;;;;;;7.91;76.13;98332.31;7385632;19;20290;-79
2023/04/07 00:13:03;;;;;;;8.68;6.30;;;;;;;7.90;76.42;98326.22;7384483;19;19917;-79
2023/04/07 00:15:30;;;;;;;7.80;6.68;;;;;;;7.95;76.37;98331.06;7389029;19;19931;-78
2023/04/07 00:17:57;;;;;;;10.57;7.43;;;;;;;7.85;76.59;98328.44;7386284;19;19911;-79
2023/04/07 00:20:24;;;;;;;10.18;7.55;;;;;;;7.93;76.81;98319.84;7388079;19;19966;-78
2023/04/07 00:22:50;;;;;;;10.80;6.03;;;;;;;7.99;76.72;98326.34;7389538;19;19935;-79
2023/04/07 00:25:17;;;;;;;9.38;6.50;;;;;;;8.03;76.88;98317.19;7386414;19;19923;-78
2023/04/07 00:27:44;;;;;;;9.70;6.47;;;;;;;8.02;76.95;98324.25;7391893;19;20353;-78
2023/04/07 00:30:11;;;;;;;9.77;6.60;;;;;;;8.03;76.52;98312.78;7384930;19;19911;-78
2023/04/07 00:32:38;;;;;;;11.02;7.28;;;;;;;8.06;76.30;98314.28;7390639;19;19943;-79
2023/04/07 00:35:05;;;;;;;10.52;9.20;;;;;;;8.09;76.26;98303.47;7391342;19;19915;-78
2023/04/07 00:37:32;;;;;;;9.48;6.50;;;;;;;8.00;76.44;98305.13;7402049;19;19926;-78
2023/04/07 00:39:58;;;;;;;7.53;5.68;;;;;;;8.00;76.35;98305.13;7399203;19;19922;-78
2023/04/07 00:42:25;;;;;;;8.95;7.38;;;;;;;7.98;76.28;98304.47;7404625;19;19919;-79
2023/04/07 00:44:53;;;;;;;10.10;8.38;;;;;;;7.98;76.33;98298.34;7397548;19;20244;-78
2023/04/07 00:47:19;;;;;;;8.27;5.47;;;;;;;7.98;76.33;98293.91;7400757;19;19915;-78
2023/04/07 00:49:46;;;;;;;10.18;6.20;;;;;;;7.95;76.33;98288.09;7396728;19;19918;-79
2023/04/07 00:52:13;;;;;;;7.80;5.47;;;;;;;7.97;76.60;98288.78;7400393;19;19926;-78
2023/04/07 00:54:41;;;;;;;8.90;5.78;;;;;;;7.99;76.44;98284.22;7398863;19;20344;-79
2023/04/07 00:57:08;;;;;;;8.07;6.18;;;;;;;7.90;76.51;98284.09;7400959;19;19918;-78
2023/04/07 00:59:35;;;;;;;11.05;6.18;;;;;;;7.86;76.56;98280.06;7403790;19;19927;-79
2023/04/07 01:02:09;;;;;;;8.20;5.70;;;;;;;7.79;76.76;98276.31;7397583;19;19982;-78
2023/04/07 01:04:44;;;;;;;7.75;5.78;;;;;;;7.85;76.60;98272.31;7400374;19;19910;-78
2023/04/07 01:07:17;;;;;;;11.02;8.38;;;;;;;7.89;76.84;98273.69;7396227;19;20325;-78
2023/04/07 01:09:54;;;;;;;8.15;5.80;;;;;;;7.93;76.54;98268.97;7394537;19;19921;-79
2023/04/07 01:12:28;;;;;;;8.27;6.28;;;;;;;7.88;76.91;98258.84;7401609;19;19974;-79
2023/04/07 01:14:59;;;;;;;7.40;5.38;;;;;;;7.92;76.78;98270.75;7400822;19;19918;-78
2023/04/07 01:17:45;;;;;;;7.93;5.18;;;;;;;7.96;76.49;98266.06;7401281;19;19915;-79
2023/04/07 01:20:15;;;;;;;8.25;5.70;;;;;;;7.93;76.86;98263.72;7392797;19;19939;-78
2023/04/07 01:22:46;;;;;;;7.55;5.88;;;;;;;7.87;76.79;98257.19;7396854;19;19919;-78
2023/04/07 01:25:29;;;;;;;7.75;5.22;;;;;;;7.94;76.60;98246.91;7391600;19;20552;-78
2023/04/07 01:28:15;;;;;;;8.70;7.30;;;;;;;7.95;76.45;98251.19;7400635;19;20260;-80
2023/04/07 01:30:42;;;;;;;7.22;5.22;;;;;;;7.88;76.87;98249.16;7399226;19;19918;-78
2023/04/07 01:33:10;;;;;;;9.98;7.10;;;;;;;7.85;76.52;98241.53;7407815;19;19910;-79
2023/04/07 01:35:38;;;;;;;6.65;4.95;;;;;;;7.87;76.93;98247.50;7419134;19;19921;-78
2023/04/07 01:38:05;;;;;;;7.50;5.43;;;;;;;7.90;76.86;98247.22;7407653;19;19914;-78
2023/04/07 01:40:32;;;;;;;9.32;6.50;;;;;;;7.87;76.91;98246.63;7394679;19;20947;-79
2023/04/07 01:43:00;;;;;;;8.43;5.78;;;;;;;7.88;76.61;98246.50;7393355;19;19927;-79
2023/04/07 01:45:27;;;;;;;7.82;5.70;;;;;;;7.89;76.79;98235.00;7397309;19;19918;-78
2023/04/07 01:47:54;;;;;;;8.98;7.25;;;;;;;7.83;76.62;98235.56;7393620;19;19926;-79
2023/04/07 01:50:22;;;;;;;8.48;5.88;;;;;;;7.86;76.65;98230.00;7396290;19;19926;-79
2023/04/07 01:52:48;;;;;;;8.73;7.82;;;;;;;7.81;76.84;98226.97;7393781;19;20300;-79
2023/04/07 01:55:15;;;;;;;9.15;5.68;;;;;;;7.84;76.69;98231.94;7390673;19;19919;-78
2023/04/07 01:58:04;;;;;;;8.38;4.55;;;;;;;7.84;76.60;98218.78;7393532;19;19915;-78
2023/04/07 02:00:33;;;;;;;10.45;5.70;;;;;;;7.85;76.53;98219.63;7396244;19;20422;-77
2023/04/07 02:03:19;;;;;;;8.10;5.30;;;;;;;7.76;76.62;98212.56;7393646;19;19980;-78
2023/04/07 02:05:48;;;;;;;11.20;5.82;;;;;;;7.77;76.73;98222.16;7396399;19;19918;-76
2023/04/07 02:08:17;;;;;;;8.55;5.95;;;;;;;7.70;76.92;98217.44;7391429;19;19914;-77
2023/04/07 02:10:46;;;;;;;5.60;4.57;;;;;;;7.74;76.96;98218.00;7391580;19;19923;-77
2023/04/07 02:13:15;;;;;;;9.20;5.53;;;;;;;7.69;77.14;98220.22;7387848;19;19931;-78
2023/04/07 02:15:44;;;;;;;7.05;5.35;;;;;;;7.68;77.39;98216.72;7394651;19;19978;-77
2023/04/07 02:18:12;;;;;;;10.15;5.72;;;;;;;7.65;77.38;98216.19;7393973;19;19911;-77
2023/04/07 02:20:40;;;;;;;10.75;6.25;;;;;;;7.70;77.32;98217.44;7395009;19;19939;-78
2023/04/07 02:23:09;;;;;;;;;;;;;;;7.73;76.99;98216.31;7394119;19;20697;-78
2023/04/07 02:25:39;;;;;;;8.57;4.88;;;;;;;7.76;76.97;98208.13;7390949;19;19922;-77
2023/04/07 02:28:06;;;;;;;8.15;5.32;;;;;;;7.76;77.17;98209.94;7387824;19;19943;-77
2023/04/07 02:30:34;;;;;;;8.82;7.65;;;;;;;7.71;77.25;98210.34;7385750;19;20322;-77
2023/04/07 02:33:01;;;;;;;10.73;6.07;;;;;;;7.68;77.16;98194.84;7391094;19;19930;-77
2023/04/07 02:35:28;;;;;;;8.82;6.90;;;;;;;7.72;76.97;98200.69;7391433;19;20458;-77
2023/04/07 02:37:54;;;;;;;10.23;5.53;;;;;;;7.66;77.27;98191.50;7398263;19;19943;-77
2023/04/07 02:40:21;;;;;;;9.40;7.28;;;;;;;7.69;77.14;98196.53;7407967;19;20921;-77
2023/04/07 02:42:52;;;;;;;8.32;5.63;;;;;;;7.73;77.06;98189.97;7415140;19;19948;-77
2023/04/07 02:45:21;;;;;;;8.30;5.43;;;;;;;7.73;77.25;98189.97;7417935;19;19922;-78
2023/04/07 02:47:48;;;;;;;8.98;5.95;;;;;;;7.74;77.20;98185.53;7415553;19;19966;-77
2023/04/07 02:50:16;;;;;;;9.95;6.18;;;;;;;7.73;77.24;98181.25;7407922;19;19915;-77
2023/04/07 02:52:43;;;;;;;10.93;6.43;;;;;;;7.78;77.29;98184.31;7415026;19;20002;-77
2023/04/07 02:55:12;;;;;;;6.80;5.32;;;;;;;7.79;77.36;98194.66;7410974;19;19918;-77
2023/04/07 02:57:39;;;;;;;8.43;5.45;;;;;;;7.80;77.27;98191.09;7412663;19;19915;-78
2023/04/07 03:00:13;;;;;;;7.60;6.00;;;;;;;7.75;77.30;98188.06;7394484;19;19922;-79
2023/04/07 03:03:06;;;;;;;8.27;6.95;;;;;;;7.77;77.40;98180.84;7386350;19;20269;-78
2023/04/07 03:05:36;;;;;;;6.97;4.82;;;;;;;7.84;77.18;98181.09;7389770;19;19930;-78
2023/04/07 03:08:04;;;;;;;8.60;6.10;;;;;;;7.80;77.43;98185.81;7386830;19;19932;-79
2023/04/07 03:10:31;;;;;;;9.20;5.88;;;;;;;7.80;77.42;98171.81;7386762;19;19941;-78
2023/04/07 03:12:57;;;;;;;9.43;6.32;;;;;;;7.79;77.44;98175.41;7386121;19;19922;-77
2023/04/07 03:15:24;;;;;;;10.40;7.10;;;;;;;7.78;77.42;98174.59;7384819;19;19940;-78
2023/04/07 03:17:51;;;;;;;10.65;8.82;;;;;;;7.70;77.50;98167.41;7385005;19;20256;-78
2023/04/07 03:20:19;;;;;;;7.90;6.90;;;;;;;7.74;77.60;98167.09;7381522;19;22236;-79
2023/04/07 03:22:46;;;;;;;9.18;6.40;;;;;;;7.76;77.27;98160.72;7386290;19;19922;-78
2023/04/07 03:25:26;;;;;;;11.40;6.50;;;;;;;7.77;77.17;98161.59;7389058;19;19978;-78
2023/04/07 03:27:54;;;;;;;8.73;6.10;;;;;;;7.75;77.30;98160.88;7394421;19;19923;-78
2023/04/07 03:30:24;;;;;;;9.75;7.20;;;;;;;7.69;77.43;98159.66;7388957;19;19918;-81
2023/04/07 03:32:50;;;;;;;8.73;6.00;;;;;;;7.69;77.26;98157.84;7391355;19;20470;-77
2023/04/07 03:35:17;;;;;;;10.57;6.63;;;;;;;7.73;77.49;98147.84;7386429;19;20375;-78
2023/04/07 03:37:45;;;;;;;10.68;7.13;;;;;;;7.74;77.39;98149.53;7388219;19;19923;-78
2023/04/07 03:40:15;;;;;;;9.18;7.18;;;;;;;7.74;77.33;98152.16;7382552;19;19933;-77
2023/04/07 03:42:45;;;;;;;10.80;8.70;;;;;;;7.69;77.45;98157.03;7391346;19;20275;-77
2023/04/07 03:45:13;;;;;;;8.85;6.10;;;;;;;7.73;77.65;98145.22;7386305;19;19930;-78
2023/04/07 03:47:45;;;;;;;8.85;6.10;;;;;;;7.78;77.48;98147.44;7386691;19;19918;-78
2023/04/07 03:50:12;;;;;;;8.98;6.80;;;;;;;7.75;77.62;98143.28;7382784;19;20356;-78
2023/04/07 03:52:50;;;;;;;9.90;6.55;;;;;;;7.75;77.74;98153.81;7386230;19;19922;-78
2023/04/07 03:55:25;;;;;;;7.93;6.07;;;;;;;7.70;77.80;98150.78;7379136;19;19922;-79
2023/04/07 03:57:56;;;;;;;9.52;6.30;;;;;;;7.74;77.89;98151.31;7384113;19;19974;-78
2023/04/07 04:00:27;;;;;;;12.30;6.93;;;;;;;7.69;77.76;98146.50;7383826;19;19926;-78
2023/04/07 04:03:04;;;;;;;10.15;7.00;;;;;;;7.70;77.91;98145.50;7382869;19;19927;-79
2023/04/07 04:05:33;;;;;;;10.85;6.65;;;;;;;7.76;77.49;98147.56;7381846;19;20337;-78
2023/04/07 04:08:00;;;;;;;10.70;6.95;;;;;;;7.70;77.63;98146.34;7380648;19;19926;-80
2023/04/07 04:10:27;;;;;;;12.65;7.53;;;;;;;7.75;77.41;98140.66;7381176;19;19922;-80
2023/04/07 04:12:54;;;;;;;12.13;6.97;;;;;;;7.76;77.53;98150.19;7394121;19;19922;-78
2023/04/07 04:15:21;;;;;;;11.20;7.53;;;;;;;7.76;77.50;98144.94;7388306;19;20358;-80
2023/04/07 04:17:49;;;;;;;13.05;8.02;;;;;;;7.73;77.65;98145.22;7392002;19;21658;-81
2023/04/07 04:20:16;;;;;;;10.32;6.82;;;;;;;7.76;77.50;98139.66;7387567;19;19919;-80
2023/04/07 04:22:47;;;;;;;12.43;8.80;;;;;;;7.77;77.54;98141.34;7391382;19;20489;-80
2023/04/07 04:25:15;;;;;;;11.27;7.53;;;;;;;7.79;77.28;98134.09;7384797;19;19933;-81
2023/04/07 04:27:46;;;;;;;11.25;6.78;;;;;;;7.80;77.31;98135.78;7391659;19;19911;-80
2023/04/07 04:30:19;;;;;;;12.98;7.75;;;;;;;7.82;77.33;98138.25;7385208;19;20118;-80
2023/04/07 04:32:50;;;;;;;10.35;6.75;;;;;;;7.82;77.24;98132.97;7394040;19;19943;-80
2023/04/07 04:35:22;;;;;;;12.35;8.57;;;;;;;7.81;77.24;98131.34;7390470;19;19978;-80
2023/04/07 04:38:02;;;;;;;11.07;8.65;;;;;;;7.77;77.39;98133.44;7391414;19;19925;-80
2023/04/07 04:40:29;;;;;;;10.05;7.03;;;;;;;7.78;77.14;98135.09;7388258;19;20333;-80
2023/04/07 04:42:56;;;;;;;10.30;6.75;;;;;;;7.78;77.38;98134.25;7392726;19;20366;-81
2023/04/07 04:45:24;;;;;;;11.95;7.32;;;;;;;7.77;77.23;98136.06;7391271;19;19925;-80
2023/04/07 04:47:51;;;;;;;11.77;7.30;;;;;;;7.78;77.09;98134.25;7397081;19;19918;-80
2023/04/07 04:50:17;;;;;;;11.20;7.88;;;;;;;7.78;77.20;98132.44;7390566;19;19923;-80
2023/04/07 04:52:45;;;;;;;12.75;7.97;;;;;;;7.77;77.34;98136.06;7393015;19;19918;-80
2023/04/07 04:55:18;;;;;;;11.95;7.60;;;;;;;7.80;77.14;98143.69;7387028;19;19947;-81
2023/04/07 04:57:46;;;;;;;11.52;7.40;;;;;;;7.82;77.36;98140.88;7391416;19;19918;-80
2023/04/07 05:00:18;;;;;;;13.05;8.65;;;;;;;7.81;77.44;98137.44;7386703;19;19925;-80
2023/04/07 05:02:47;;;;;;;12.50;9.40;;;;;;;7.85;77.51;98144.09;7390885;19;20288;-79
2023/04/07 05:05:15;;;;;;;11.70;7.43;;;;;;;7.84;77.43;98137.13;7389184;19;19918;-81
2023/04/07 05:07:42;;;;;;;13.13;8.20;;;;;;;7.85;77.49;98125.66;7392455;19;19960;-80
2023/04/07 05:10:12;;;;;;;9.73;7.07;;;;;;;7.89;77.19;98134.06;7386577;19;19967;-80
2023/04/07 05:12:45;;;;;;;12.88;7.80;;;;;;;7.85;77.42;98136.19;7392115;19;19930;-79
2023/04/07 05:15:14;;;;;;;11.60;7.30;;;;;;;7.87;77.58;98141.28;7393893;19;19906;-80
2023/04/07 05:17:42;;;;;;;14.90;9.45;;;;;;;7.89;77.40;98139.34;7393004;19;20392;-80
2023/04/07 05:20:11;;;;;;;12.13;7.55;;;;;;;7.89;77.28;98137.53;7389642;19;19928;-81
2023/04/07 05:22:40;;;;;;;12.70;8.68;;;;;;;7.93;77.06;98145.16;7393562;19;19918;-81
2023/04/07 05:25:10;;;;;;;11.43;7.90;;;;;;;7.91;77.32;98134.78;7390664;19;20329;-81
2023/04/07 05:27:39;;;;;;;13.68;9.75;;;;;;;7.93;77.46;98134.63;7394601;19;19922;-80
2023/04/07 05:30:12;;;;;;;12.25;6.90;;;;;;;7.93;77.50;98139.91;7390230;19;19918;-81
2023/04/07 05:32:38;;;;;;;13.77;9.68;;;;;;;7.94;77.58;98142.38;7392853;19;19927;-80
2023/04/07 05:35:14;;;;;;;12.52;8.27;;;;;;;7.96;77.63;98135.16;7394407;19;19918;-81
2023/04/07 05:37:48;;;;;;;11.65;7.85;;;;;;;7.99;77.51;98140.13;7398252;19;19926;-81
2023/04/07 05:40:15;;;;;;;13.07;8.82;;;;;;;8.02;77.59;98136.38;7396374;19;19922;-81
2023/04/07 05:42:42;;;;;;;12.20;7.53;;;;;;;8.03;77.45;98138.88;7397146;19;19922;-80
2023/04/07 05:45:10;;;;;;;14.13;9.77;;;;;;;8.07;77.35;98142.06;7394351;19;19910;-80
2023/04/07 05:47:40;;;;;;;;;;;;;;;8.09;77.40;98142.75;7394515;19;19918;-80
2023/04/07 05:50:11;;;;;;;11.57;7.55;;;;;;;8.10;77.40;98137.31;7394181;19;19947;-81
2023/04/07 05:52:39;;;;;;;12.27;7.93;;;;;;;8.13;77.35;98134.38;7393944;19;20378;-80
2023/04/07 05:55:17;;;;;;;12.02;9.05;;;;;;;8.19;77.10;98134.78;7394873;19;20293;-81
2023/04/07 05:57:44;;;;;;;12.02;7.68;;;;;;;8.19;77.09;98135.63;7396009;19;19937;-78
2023/04/07 06:00:11;;;;;;;12.20;8.10;;;;;;;8.20;76.97;98139.91;7391579;19;19918;-79
2023/04/07 06:02:42;;;;;;;10.70;7.13;;;;;;;8.21;77.21;98144.19;7394879;19;19906;-81
2023/04/07 06:05:15;;;;;;;12.65;8.30;;;;;;;8.23;77.32;98142.25;7393070;19;20483;-80
2023/04/07 06:07:42;;;;;;;10.63;7.13;;;;;;;8.23;77.14;98144.88;7376970;19;19938;-81
2023/04/07 06:10:09;;;;;;;11.75;7.57;;;;;;;8.31;76.87;98144.97;7390339;19;19927;-81
2023/04/07 06:12:36;;;;;;;13.48;8.30;;;;;;;8.30;77.00;98148.59;7392067;19;19939;-78
2023/04/07 06:15:03;;;;;;;11.70;7.68;;;;;;;8.29;76.75;98148.72;7395491;19;19914;-81
2023/04/07 06:17:30;;;;;;;11.63;8.52;;;;;;;8.30;76.56;98155.69;7394141;19;19926;-78
2023/04/07 06:19:56;;;;;;;11.90;8.18;;;;;;;8.31;76.39;98152.06;7393817;19;20344;-81
2023/04/07 06:22:23;;;;;;;10.23;6.90;;;;;;;8.31;76.66;98149.41;7394667;19;19922;-80
2023/04/07 06:24:50;;;;;;;10.13;7.30;;;;;;;8.30;76.45;98150.41;7396453;19;19940;-81
2023/04/07 06:27:17;;;;;;;13.27;8.05;;;;;;;8.31;76.34;98152.88;7396359;19;19919;-81
2023/04/07 06:29:46;;;;;;;10.88;9.40;;;;;;;8.30;76.09;98145.13;7394087;19;20273;-78
2023/04/07 06:32:13;;;;;;;13.88;10.60;;;;;;;8.31;76.52;98149.41;7393593;19;20574;-78
2023/04/07 06:34:40;;;;;;;11.82;8.18;;;;;;;8.33;76.34;98150.94;7391993;19;19919;-79
2023/04/07 06:37:07;;;;;;;11.38;7.82;;;;;;;8.32;76.05;98145.78;7387984;19;20371;-79
2023/04/07 06:39:34;;;;;;;14.48;8.68;;;;;;;8.41;76.24;98155.50;7389032;19;19923;-79
2023/04/07 06:42:01;;;;;;;12.65;8.35;;;;;;;8.47;76.09;98144.34;7398837;19;19931;-78
2023/04/07 06:44:34;;;;;;;12.75;8.90;;;;;;;8.56;76.02;98153.22;7396938;19;20345;-81
2023/04/07 06:47:01;;;;;;;11.93;7.90;;;;;;;8.64;76.07;98149.84;7399738;19;19943;-80
2023/04/07 06:49:27;;;;;;;14.00;7.55;;;;;;;8.73;76.26;98152.38;7395493;19;19922;-81
2023/04/07 06:51:54;;;;;;;14.60;8.63;;;;;;;8.82;76.20;98144.53;7394316;19;19926;-81
2023/04/07 06:54:21;;;;;;;12.85;8.88;;;;;;;8.93;76.02;98144.34;7392067;19;19919;-81
2023/04/07 06:56:48;;;;;;;12.30;7.43;;;;;;;8.98;76.09;98148.19;7395265;19;19936;-80
2023/04/07 06:59:15;;;;;;;11.85;9.98;;;;;;;9.10;75.80;98146.13;7401983;19;19915;-81
2023/04/07 07:01:42;;;;;;;12.65;9.88;;;;;;;9.26;75.88;98144.63;7396225;19;20250;-80
2023/04/07 07:04:09;;;;;;;13.52;9.27;;;;;;;9.33;75.42;98145.66;7390350;19;19918;-81
2023/04/07 07:06:36;;;;;;;12.48;8.48;;;;;;;9.43;74.29;98141.94;7391601;19;19937;-81
2023/04/07 07:09:03;;;;;;;12.23;8.05;;;;;;;9.51;74.38;98137.72;7395470;19;19939;-79
2023/04/07 07:11:30;;;;;;;12.10;7.57;;;;;;;9.65;74.43;98137.97;7391982;19;19915;-79
2023/04/07 07:13:56;;;;;;;11.38;7.45;;;;;;;9.75;73.56;98139.69;7392206;19;19927;-81
2023/04/07 07:16:23;;;;;;;11.45;7.90;;;;;;;9.90;73.06;98143.41;7399283;19;19936;-80
2023/04/07 07:18:50;;;;;;;11.18;7.63;;;;;;;10.08;72.45;98141.50;7399831;19;19948;-79
2023/04/07 07:21:18;;;;;;;12.05;8.30;;;;;;;10.21;72.27;98142.88;7394534;19;19931;-77
2023/04/07 07:23:44;;;;;;;12.65;8.15;;;;;;;10.23;71.70;98149.66;7392730;19;19974;-82
2023/04/07 07:26:12;;;;;;;13.15;8.18;;;;;;;10.24;72.25;98147.84;7388695;19;19915;-77
2023/04/07 07:28:38;;;;;;;10.35;7.50;;;;;;;10.17;71.26;98137.09;7388203;19;19911;-79
2023/04/07 07:31:09;;;;;;;11.05;7.03;;;;;;;10.02;70.33;98147.41;7390419;19;19947;-80
2023/04/07 07:33:39;;;;;;;11.05;7.13;;;;;;;9.88;70.08;98146.19;7393933;19;20599;-80
2023/04/07 07:36:07;;;;;;;11.25;7.32;;;;;;;9.61;69.72;98141.91;7398408;19;20328;-81
2023/04/07 07:38:34;;;;;;;12.57;8.05;;;;;;;9.45;71.25;98142.63;7398070;19;19943;-81
2023/04/07 07:41:03;;;;;;;11.90;7.00;;;;;;;9.44;71.19;98137.50;7398536;19;19933;-79
2023/04/07 07:43:30;;;;;;;13.07;8.27;;;;;;;9.65;71.74;98139.78;7401215;19;19919;-83
2023/04/07 07:45:56;;;;;;;11.35;8.10;;;;;;;9.84;72.05;98138.72;7401958;19;19930;-81
2023/04/07 07:48:23;;;;;;;11.32;6.88;;;;;;;10.00;70.20;98144.09;7409808;19;19978;-80
2023/04/07 07:50:51;;;;;;;9.50;6.75;;;;;;;10.22;70.57;98148.00;7406803;19;19914;-79
2023/04/07 07:53:18;;;;;;;11.52;6.75;;;;;;;10.38;69.79;98146.47;7405774;19;19921;-79
2023/04/07 07:55:46;;;;;;;9.50;7.18;;;;;;;10.43;68.01;98150.28;7406794;19;19926;-79
2023/04/07 07:58:12;;;;;;;7.57;5.82;;;;;;;10.59;68.79;98149.50;7402648;19;19918;-78
2023/04/07 08:00:39;;;;;;;10.32;7.18;;;;;;;10.73;67.23;98150.69;7395440;19;19915;-80
2023/04/07 08:03:07;;;;;;;11.18;6.22;;;;;;;10.91;66.10;98143.44;7401782;19;19922;-81
2023/04/07 08:05:34;;;;;;;6.38;4.78;;;;;;;11.10;64.30;98141.47;7401808;19;19947;-81
2023/04/07 08:08:01;;;;;;;7.03;5.32;;;;;;;11.28;66.12;98146.59;7404461;19;19918;-82
2023/04/07 08:10:28;;;;;;;7.38;5.65;;;;;;;11.57;67.56;98138.97;7399689;19;19907;-81
2023/04/07 08:12:55;;;;;;;7.75;5.20;;;;;;;11.96;67.78;98137.44;7398852;19;19925;-81
2023/04/07 08:15:22;;;;;;;7.57;4.85;;;;;;;12.36;65.27;98140.94;7396559;19;19918;-81
2023/04/07 08:17:49;;;;;;;7.65;5.65;;;;;;;12.67;62.22;98141.75;7398787;19;19922;-82
2023/04/07 08:20:16;;;;;;;7.18;5.43;;;;;;;13.07;62.39;98136.38;7401764;19;19926;-82
2023/04/07 08:22:43;;;;;;;8.15;5.47;;;;;;;13.51;61.03;98141.03;7402192;19;19940;-82
2023/04/07 08:25:09;;;;;;;6.53;5.07;;;;;;;13.91;58.86;98147.75;7399068;19;19911;-81
2023/04/07 08:27:36;;;;;;;5.97;4.50;;;;;;;13.77;58.99;98145.91;7399318;19;19955;-81
2023/04/07 08:30:07;;;;;;;7.28;4.80;;;;;;;13.88;58.25;98144.66;7400910;19;19918;-81
2023/04/07 08:32:39;;;;;;;8.55;6.07;;;;;;;13.49;57.66;98146.50;7392299;19;19915;-81
2023/04/07 08:35:06;;;;;;;8.10;6.15;;;;;;;13.44;57.73;98140.09;7393034;19;20616;-80
2023/04/07 08:37:33;;;;;;;6.55;5.15;;;;;;;13.35;61.16;98144.66;7391319;19;19929;-81
2023/04/07 08:40:03;;;;;;;7.50;5.20;;;;;;;12.82;59.52;98143.66;7391172;19;19922;-81
2023/04/07 08:42:34;;;;;;;7.40;5.45;;;;;;;12.87;59.03;98150.09;7394117;19;19921;-81
2023/04/07 08:45:06;;;;;;;7.70;4.60;;;;;;;12.42;62.32;98149.00;7397027;19;19929;-81
2023/04/07 08:47:36;;;;;;;7.75;4.53;;;;;;;12.12;59.70;98157.78;7394662;19;19978;-81
2023/04/07 08:50:08;;;;;;;5.20;4.60;;;;;;;11.90;59.88;98156.66;7394008;19;19935;-81
2023/04/07 08:52:52;;;;;;;6.35;5.50;;;;;;;11.74;60.84;98162.78;7391688;19;20748;-83
2023/04/07 08:55:19;;;;;;;7.05;4.28;;;;;;;11.52;62.70;98164.31;7392266;19;19918;-81
2023/04/07 08:57:46;;;;;;;7.18;4.97;;;;;;;11.36;62.71;98168.59;7391171;19;19922;-83
2023/04/07 09:00:13;;;;;;;8.02;5.38;;;;;;;11.54;64.51;98167.63;7392116;19;19925;-81
2023/04/07 09:02:44;;;;;;;9.52;6.43;;;;;;;11.23;63.58;98173.56;7397151;19;19922;-82
2023/04/07 09:05:13;;;;;;;8.88;6.05;;;;;;;11.18;63.07;98173.25;7396137;19;19929;-81
2023/04/07 09:07:42;;;;;;;6.68;5.95;;;;;;;11.59;63.30;98171.41;7391184;19;20316;-82
2023/04/07 09:10:09;;;;;;;8.30;6.05;;;;;;;11.87;61.57;98179.03;7391634;19;20021;-81
2023/04/07 09:12:36;;;;;;;7.13;4.90;;;;;;;12.23;61.94;98176.78;7387516;19;19914;-81
2023/04/07 09:15:05;;;;;;;7.40;5.47;;;;;;;12.55;59.51;98168.84;7394140;19;20539;-82
2023/04/07 09:17:32;;;;;;;7.10;6.38;;;;;;;12.68;60.11;98175.25;7392419;19;20318;-81
2023/04/07 09:20:00;;;;;;;7.00;6.20;;;;;;;12.84;58.10;98170.84;7391348;19;20382;-81
2023/04/07 09:22:41;;;;;;;6.68;5.00;;;;;;;12.96;57.87;98172.13;7392600;19;19946;-81
2023/04/07 09:25:09;;;;;;;7.80;5.68;;;;;;;13.23;59.45;98165.44;7391685;19;20572;-81
2023/04/07 09:27:36;;;;;;;8.00;4.50;;;;;;;13.47;59.34;98171.59;7397199;19;19922;-81
2023/04/07 09:30:11;;;;;;;5.60;4.13;;;;;;;13.52;56.83;98162.09;7393134;19;19951;-80
2023/04/07 09:32:40;;;;;;;6.68;4.47;;;;;;;13.59;58.11;98168.34;7391574;19;20773;-81
2023/04/07 09:35:07;;;;;;;9.48;5.00;;;;;;;12.92;60.54;98170.81;7398311;19;19939;-81
2023/04/07 09:37:35;;;;;;;6.00;4.65;;;;;;;13.16;59.41;98172.47;7392665;19;19915;-81
2023/04/07 09:40:02;;;;;;;5.97;4.38;;;;;;;13.31;58.50;98177.88;7392724;19;19918;-81
2023/04/07 09:42:34;;;;;;;5.85;5.07;;;;;;;13.26;56.37;98181.06;7389615;19;19918;-81
2023/04/07 09:45:01;;;;;;;8.02;5.72;;;;;;;12.89;58.44;98185.25;7390982;19;19939;-81
2023/04/07 09:47:31;;;;;;;6.18;5.38;;;;;;;13.05;57.00;98186.16;7388883;19;19922;-81
2023/04/07 09:49:58;;;;;;;9.50;5.63;;;;;;;12.95;58.25;98187.22;7384155;19;19983;-81
2023/04/07 09:52:48;;;;;;;8.18;6.90;;;;;;;13.38;61.03;98176.16;7388290;19;20207;-81
2023/04/07 09:55:16;;;;;;;6.38;5.28;;;;;;;13.69;57.85;98173.41;7389713;19;20644;-81
2023/04/07 09:57:43;;;;;;;6.80;5.47;;;;;;;13.92;59.07;98180.50;7387772;19;19939;-81
2023/04/07 10:00:10;;;;;;;5.90;4.78;;;;;;;14.09;57.34;98187.31;7393455;19;19922;-81
2023/04/07 10:02:41;;;;;;;5.57;4.95;;;;;;;14.16;57.76;98176.75;7392955;19;19915;-79
2023/04/07 10:05:09;;;;;;;6.93;5.05;;;;;;;14.52;57.36;98181.31;7393339;19;20504;-81
2023/04/07 10:07:36;;;;;;;6.60;5.13;;;;;;;14.78;57.40;98175.53;7392697;19;19922;-81
2023/04/07 10:10:03;;;;;;;8.13;5.28;;;;;;;14.94;58.63;98180.63;7388756;19;20362;-82
2023/04/07 10:12:33;;;;;;;9.55;5.65;;;;;;;14.55;55.15;98184.47;7388193;19;19915;-82
2023/04/07 10:15:01;;;;;;;5.32;4.57;;;;;;;14.56;55.86;98177.28;7394479;19;19929;-82
2023/04/07 10:17:28;;;;;;;6.82;4.85;;;;;;;14.56;56.81;98174.63;7394506;19;19951;-80
2023/04/07 10:19:58;;;;;;;7.10;5.13;;;;;;;14.58;55.41;98172.63;7395242;19;19914;-81
2023/04/07 10:22:26;;;;;;;6.25;4.88;;;;;;;14.03;54.24;98172.06;7389362;19;19940;-81
2023/04/07 10:24:57;;;;;;;6.22;4.90;;;;;;;14.26;57.24;98166.66;7393075;19;19943;-82
2023/04/07 10:27:41;;;;;;;7.18;5.38;;;;;;;14.38;56.75;98173.19;7388550;19;19924;-82
2023/04/07 10:30:12;;;;;;;6.70;5.18;;;;;;;14.27;55.39;98171.81;7394099;19;19923;-82
2023/04/07 10:32:49;;;;;;;7.45;4.68;;;;;;;14.62;54.38;98171.25;7397242;19;19942;-83
2023/04/07 10:35:16;;;;;;;6.90;5.00;;;;;;;14.83;56.38;98173.13;7396924;19;19914;-81
2023/04/07 10:38:15;;;;;;;6.70;4.82;;;;;;;15.13;54.35;98169.34;7398238;19;19918;-82
2023/04/07 10:40:42;;;;;;;8.95;4.88;;;;;;;15.37;54.00;98167.31;7396823;19;19943;-84
2023/04/07 10:43:12;;;;;;;6.43;5.50;;;;;;;15.49;52.07;98154.31;7404643;19;20262;-83
2023/04/07 10:45:48;;;;;;;;;;;;;;;15.51;51.01;98157.59;7398628;19;19914;-82
2023/04/07 10:48:16;;;;;;;5.95;4.93;;;;;;;15.84;51.00;98165.88;7397879;19;19918;-82
2023/04/07 10:50:44;;;;;;;6.05;4.22;;;;;;;15.74;50.61;98168.88;7392941;19;20214;-83
2023/04/07 10:53:15;;;;;;;5.53;4.97;;;;;;;15.95;49.39;98165.34;7400045;19;20307;-83
2023/04/07 10:55:45;;;;;;;;;;;;;;;16.08;51.17;98161.94;7402647;19;20570;-82
2023/04/07 10:58:38;;;;;;;7.40;4.80;;;;;;;16.02;50.25;98160.06;7402025;19;19923;-83
2023/04/07 11:01:05;;;;;;;5.60;4.00;;;;;;;16.01;50.30;98155.75;7394369;19;19925;-82
2023/04/07 11:03:41;;;;;;;6.18;4.15;;;;;;;16.24;51.20;98147.44;7399804;19;20328;-83
2023/04/07 11:06:10;;;;;;;6.50;4.82;;;;;;;16.37;48.54;98168.88;7396257;19;19927;-82
2023/04/07 11:08:41;;;;;;;4.93;4.03;;;;;;;16.67;47.66;98158.75;7400712;19;19936;-83
2023/04/07 11:11:10;;;;;;;6.60;5.00;;;;;;;16.91;47.11;98153.09;7400967;19;20420;-82
2023/04/07 11:13:48;;;;;;;5.85;3.97;;;;;;;17.09;47.66;98161.34;7395070;19;19926;-81
2023/04/07 11:16:16;;;;;;;7.07;4.53;;;;;;;17.47;46.16;98150.09;7398936;19;19922;-82
2023/04/07 11:18:45;;;;;;;5.32;4.60;;;;;;;16.83;46.11;98156.78;7397428;19;20460;-81
2023/04/07 11:21:16;;;;;;;6.32;3.67;;;;;;;17.21;48.23;98151.69;7392812;19;19911;-84
2023/04/07 11:23:44;;;;;;;5.20;3.67;;;;;;;18.53;43.11;98152.59;7386148;19;19914;-82
2023/04/07 11:26:13;;;;;;;4.53;3.55;;;;;;;19.80;41.42;98149.16;7396328;19;20337;-82
2023/04/07 11:28:48;;;;;;;4.53;3.92;;;;;;;20.47;39.27;98147.41;7399576;19;19947;-83
2023/04/07 11:31:26;;;;;;;4.50;3.70;;;;;;;21.27;38.78;98149.91;7392536;19;20487;-82
2023/04/07 11:33:55;;;;;;;4.60;3.90;;;;;;;22.19;36.82;98142.41;7390604;19;21188;-83
2023/04/07 11:36:37;;;;;;;7.55;3.28;;;;;;;22.71;35.62;98151.31;7389843;19;19923;-82
2023/04/07 11:39:03;;;;;;;4.95;3.67;;;;;;;22.25;35.93;98142.28;7382071;19;19947;-82
2023/04/07 11:41:32;;;;;;;4.90;3.25;;;;;;;21.14;37.70;98144.69;7382604;19;20593;-83
2023/04/07 11:44:05;;;;;;;2.60;2.38;;;;;;;19.95;39.38;98144.25;7385010;19;19925;-83
2023/04/07 11:46:32;;;;;;;3.72;3.40;;;;;;;18.68;41.91;98138.94;7383219;19;19915;-80